METAR Torp

ENTO 232220Z AUTO 31006KT 9999 NCD 06/M01 Q1009

METAR Gardermoen

ENGM 232220Z 31003KT 270V350 CAVOK 04/M02 Q1008

Webcam Kjeller